createdAt,value
2018-11-29T00:01:04.250Z,89.8
2018-11-29T00:02:16.521Z,89.5
2018-11-29T00:03:28.745Z,90
2018-11-29T00:04:40.918Z,90.2
2018-11-29T00:05:53.129Z,90
2018-11-29T00:07:05.449Z,90.2
2018-11-29T00:08:17.543Z,90.8
2018-11-29T00:09:29.768Z,91
2018-11-29T00:10:42.075Z,91
2018-11-29T00:11:54.214Z,90.1
2018-11-29T00:13:06.519Z,89.8
2018-11-29T00:14:18.650Z,89.9
2018-11-29T00:15:30.951Z,89.6
2018-11-29T00:16:43.144Z,90
2018-11-29T00:17:55.278Z,89.5
2018-11-29T00:19:07.499Z,89.1
2018-11-29T00:20:19.781Z,89.3
2018-11-29T00:21:32.033Z,89.5
2018-11-29T00:22:44.149Z,89.3
2018-11-29T00:23:56.433Z,89.4
2018-11-29T00:25:08.658Z,89.5
2018-11-29T00:26:20.868Z,89.2
2018-11-29T00:27:33.079Z,89.2
2018-11-29T00:28:45.314Z,88.8
2018-11-29T00:29:57.513Z,89.6
2018-11-29T00:31:09.651Z,88.9
2018-11-29T00:32:21.887Z,89.7
2018-11-29T00:33:34.321Z,88.9
2018-11-29T00:34:46.385Z,89.1
2018-11-29T00:35:58.537Z,88.6
2018-11-29T00:37:10.738Z,88.6
2018-11-29T00:38:22.968Z,88.6
2018-11-29T00:39:35.294Z,88.8
2018-11-29T00:40:47.412Z,88.8
2018-11-29T00:41:59.596Z,88.5
2018-11-29T00:43:11.922Z,89.1
2018-11-29T00:44:24.014Z,89.5
2018-11-29T00:45:36.224Z,89.3
2018-11-29T00:46:48.433Z,89.8
2018-11-29T00:48:00.790Z,89.7
2018-11-29T00:49:12.901Z,89.3
2018-11-29T00:50:25.199Z,88.2
2018-11-29T00:51:37.284Z,88.2
2018-11-29T00:52:49.565Z,88.2
2018-11-29T00:54:01.730Z,88.4
2018-11-29T00:55:13.931Z,88.8
2018-11-29T00:56:26.152Z,89.5
2018-11-29T00:57:38.365Z,89.5
2018-11-29T00:58:50.668Z,89
2018-11-29T01:00:02.907Z,89.5
2018-11-29T01:01:15.031Z,89.3
2018-11-29T01:02:27.327Z,89.8
2018-11-29T01:03:39.525Z,89.6
2018-11-29T01:04:51.663Z,88.9
2018-11-29T01:06:03.894Z,89.6
2018-11-29T01:07:16.104Z,89.4
2018-11-29T01:08:28.431Z,90
2018-11-29T01:09:40.674Z,89.8
2018-11-29T01:10:52.737Z,89.7
2018-11-29T01:12:05.020Z,89.2
2018-11-29T01:13:17.238Z,89.4
2018-11-29T01:14:29.360Z,89.5
2018-11-29T01:15:41.652Z,89.5
2018-11-29T01:16:53.880Z,89.8
2018-11-29T01:18:06.016Z,89.8
2018-11-29T01:19:18.300Z,88.9
2018-11-29T01:20:30.556Z,88.6
2018-11-29T01:21:42.735Z,89.7
2018-11-29T01:22:54.936Z,89.7
2018-11-29T01:24:07.072Z,90
2018-11-29T01:25:19.358Z,88.3
2018-11-29T01:26:31.573Z,88.7
2018-11-29T01:27:43.718Z,88.7
2018-11-29T01:28:56.565Z,88.5
2018-11-29T01:30:08.160Z,88.5
2018-11-29T01:31:20.447Z,88.4
2018-11-29T01:32:32.693Z,89
2018-11-29T01:33:44.827Z,89.4
2018-11-29T01:34:57.051Z,89.5
2018-11-29T01:36:09.302Z,88.8
2018-11-29T01:37:21.544Z,88.9
2018-11-29T01:38:33.685Z,89.8
2018-11-29T01:39:46.012Z,89.4
2018-11-29T01:40:58.138Z,88.7
2018-11-29T01:42:10.464Z,88.7
2018-11-29T01:43:22.549Z,88.9
2018-11-29T01:44:34.851Z,89
2018-11-29T01:45:46.988Z,88.6
2018-11-29T01:46:59.267Z,88.8
2018-11-29T01:48:11.413Z,87.9
2018-11-29T01:49:23.815Z,87.6
2018-11-29T01:50:35.911Z,87.4
2018-11-29T01:51:48.125Z,87.4
2018-11-29T01:53:00.352Z,87.1
2018-11-29T01:54:12.483Z,88
2018-11-29T01:55:24.704Z,87.9
2018-11-29T01:56:36.917Z,87.8
2018-11-29T01:57:49.129Z,88.3
2018-11-29T01:59:01.355Z,87.5
2018-11-29T02:00:13.589Z,87.9
2018-11-29T02:01:25.933Z,88
2018-11-29T02:02:38.079Z,88.5
2018-11-29T02:03:50.305Z,88.8
2018-11-29T02:05:02.458Z,89.2
2018-11-29T02:06:14.663Z,89
2018-11-29T02:07:26.926Z,88.3
2018-11-29T02:08:39.175Z,88.4
2018-11-29T02:09:51.397Z,88.9
2018-11-29T02:11:03.724Z,88.7
2018-11-29T02:12:15.819Z,88.5
2018-11-29T02:13:27.947Z,87.7
2018-11-29T02:14:40.187Z,88.3
2018-11-29T02:15:52.461Z,88.5
2018-11-29T02:17:04.727Z,88.9
2018-11-29T02:18:16.894Z,88.1
2018-11-29T02:19:29.019Z,88.2
2018-11-29T02:20:41.236Z,87.5
2018-11-29T02:21:53.447Z,87.8
2018-11-29T02:23:05.740Z,87.8
2018-11-29T02:24:17.966Z,87.7
2018-11-29T02:25:30.144Z,87.7
2018-11-29T02:26:42.399Z,87.8
2018-11-29T02:27:54.549Z,88
2018-11-29T02:29:06.763Z,87.8
2018-11-29T02:30:19.059Z,87.9
2018-11-29T02:31:31.277Z,88.2
2018-11-29T02:32:43.411Z,88.1
2018-11-29T02:33:55.714Z,87.7
2018-11-29T02:35:07.922Z,87.7
2018-11-29T02:36:20.139Z,88.4
2018-11-29T02:37:32.396Z,88.1
2018-11-29T02:38:44.553Z,88.2
2018-11-29T02:39:56.784Z,87.3
2018-11-29T02:41:08.964Z,88
2018-11-29T02:42:21.179Z,87.5
2018-11-29T02:43:33.393Z,87.6
2018-11-29T02:44:45.536Z,88.3
2018-11-29T02:45:57.771Z,87.8
2018-11-29T02:47:09.980Z,86.6
2018-11-29T02:48:22.170Z,87.2
2018-11-29T02:49:34.385Z,86
2018-11-29T02:50:46.721Z,86.2
2018-11-29T02:51:58.807Z,86.2
2018-11-29T02:53:11.092Z,85.4
2018-11-29T02:55:35.458Z,85.7
2018-11-29T02:56:47.657Z,85.1
2018-11-29T02:57:59.975Z,85.1
2018-11-29T02:59:12.119Z,85.4
2018-11-29T03:00:24.320Z,85.8
2018-11-29T03:01:36.618Z,85.9
2018-11-29T03:02:48.857Z,85.5
2018-11-29T03:04:01.000Z,85.8
2018-11-29T03:05:13.209Z,86.2
2018-11-29T03:06:25.505Z,85.6
2018-11-29T03:07:37.713Z,86.2
2018-11-29T03:08:49.930Z,86.3
2018-11-29T03:10:02.087Z,85.8
2018-11-29T03:11:14.378Z,86.3
2018-11-29T03:12:26.597Z,86.2
2018-11-29T03:13:38.820Z,86.2
2018-11-29T03:14:51.042Z,85.5
2018-11-29T03:17:15.481Z,86.2
2018-11-29T03:18:27.636Z,85.1
2018-11-29T03:19:39.856Z,85.7
2018-11-29T03:20:52.141Z,85.5
2018-11-29T03:22:04.381Z,85.2
2018-11-29T03:23:16.579Z,85.3
2018-11-29T03:24:28.744Z,85.8
2018-11-29T03:25:40.946Z,85.8
2018-11-29T03:26:53.236Z,84.7
2018-11-29T03:28:05.380Z,85.3
2018-11-29T03:29:17.687Z,85.9
2018-11-29T03:30:29.832Z,84.7
2018-11-29T03:31:42.037Z,84.2
2018-11-29T03:35:18.848Z,84.1
2018-11-29T03:36:30.925Z,83.8
2018-11-29T03:37:43.345Z,84
2018-11-29T03:38:55.386Z,84.3
2018-11-29T03:40:07.675Z,85
2018-11-29T03:41:19.875Z,84.9
2018-11-29T03:42:32.045Z,84.7
2018-11-29T03:44:56.472Z,85.3
2018-11-29T03:46:08.790Z,86
2018-11-29T03:47:20.902Z,85.3
2018-11-29T03:48:33.117Z,85.9
2018-11-29T03:49:45.436Z,86.1
2018-11-29T03:50:57.575Z,86
2018-11-29T03:52:09.773Z,85.5
2018-11-29T03:53:21.986Z,86.3
2018-11-29T03:55:46.517Z,86
2018-11-29T03:56:58.742Z,85.9
2018-11-29T03:58:10.892Z,85.6
2018-11-29T03:59:23.178Z,86.2
2018-11-29T04:00:35.322Z,86.2
2018-11-29T04:01:48.943Z,86.2
2018-11-29T04:02:59.826Z,86.3
2018-11-29T04:04:12.044Z,86.2
2018-11-29T04:05:24.249Z,86
2018-11-29T04:06:36.407Z,85.8
2018-11-29T04:07:48.612Z,85
2018-11-29T04:09:00.829Z,85.3
2018-11-29T04:10:13.139Z,85.6
2018-11-29T04:11:25.265Z,86
2018-11-29T04:12:37.598Z,85.8
2018-11-29T04:13:49.695Z,85.2
2018-11-29T04:15:01.908Z,84.9
2018-11-29T04:16:14.147Z,84.7
2018-11-29T04:17:26.421Z,83.9
2018-11-29T04:18:38.641Z,83.7
2018-11-29T04:19:50.795Z,84.5
2018-11-29T04:21:03.100Z,84.6
2018-11-29T04:22:15.273Z,84.1
2018-11-29T04:23:27.527Z,84.5
2018-11-29T04:24:39.688Z,84
2018-11-29T04:28:19.836Z,84.2
2018-11-29T04:29:28.613Z,84.2
2018-11-29T04:30:40.796Z,83.9
2018-11-29T04:31:53.075Z,84.1
2018-11-29T04:33:05.201Z,84.8
2018-11-29T04:34:18.567Z,84.6
2018-11-29T04:35:29.724Z,85.5
2018-11-29T04:36:41.904Z,85
2018-11-29T04:39:06.314Z,85.5
2018-11-29T04:40:18.529Z,84.6
2018-11-29T04:41:30.766Z,84.4
2018-11-29T04:43:55.200Z,84.2
2018-11-29T04:45:07.499Z,84
2018-11-29T04:46:19.642Z,83.6
2018-11-29T04:47:34.616Z,83.5
2018-11-29T04:48:44.142Z,83.7
2018-11-29T04:49:56.321Z,84.7
2018-11-29T04:51:08.566Z,84.7
2018-11-29T04:52:20.710Z,84.5
2018-11-29T04:53:33.010Z,84.3
2018-11-29T04:54:45.220Z,84.3
2018-11-29T04:55:57.444Z,85.2
2018-11-29T04:57:09.600Z,84.7
2018-11-29T04:58:21.810Z,85
2018-11-29T04:59:34.210Z,84.9
2018-11-29T05:00:46.315Z,85.9
2018-11-29T05:01:58.515Z,86.4
2018-11-29T05:03:10.788Z,87
2018-11-29T05:04:22.954Z,87
2018-11-29T05:05:35.096Z,87.2
2018-11-29T05:06:49.590Z,87.1
2018-11-29T05:07:59.537Z,87.7
2018-11-29T05:09:11.856Z,87.1
2018-11-29T05:10:24.058Z,88
2018-11-29T05:11:36.211Z,87.1
2018-11-29T05:14:00.716Z,85.8
2018-11-29T05:15:12.846Z,85.5
2018-11-29T05:16:25.133Z,85.5
2018-11-29T05:17:37.345Z,86.6
2018-11-29T05:18:49.557Z,85.9
2018-11-29T05:20:01.682Z,85.5
2018-11-29T05:21:13.961Z,86.4
2018-11-29T05:22:26.107Z,85.8
2018-11-29T05:23:38.543Z,86.3
2018-11-29T05:24:50.628Z,87.2
2018-11-29T05:26:02.850Z,86.7
2018-11-29T05:27:15.048Z,86.3
2018-11-29T05:28:27.219Z,86.7
2018-11-29T05:29:39.524Z,85.8
2018-11-29T05:30:51.636Z,85.3
2018-11-29T05:32:04.069Z,84.7
2018-11-29T05:33:16.155Z,84.9
2018-11-29T05:34:28.375Z,85.5
2018-11-29T05:35:43.656Z,85.1
2018-11-29T05:36:52.844Z,84.9
2018-11-29T05:38:05.085Z,85
2018-11-29T05:39:17.380Z,85.2
2018-11-29T05:40:29.485Z,85
2018-11-29T05:41:41.783Z,84.8
2018-11-29T05:42:53.876Z,84.4
2018-11-29T05:44:06.152Z,85.5
2018-11-29T05:45:18.318Z,85.9
2018-11-29T05:46:30.532Z,85.1
2018-11-29T05:47:42.830Z,84.6
2018-11-29T05:48:55.071Z,85
2018-11-29T05:50:07.249Z,84.9
2018-11-29T05:51:19.409Z,85.1
2018-11-29T05:52:34.749Z,84.4
2018-11-29T05:53:43.821Z,84.6
2018-11-29T05:54:56.053Z,84.8
2018-11-29T05:56:08.271Z,85.2
2018-11-29T05:57:20.499Z,85.1
2018-11-29T05:58:32.705Z,85.3
2018-11-29T05:59:44.980Z,84.9
2018-11-29T06:02:09.414Z,84.7
2018-11-29T06:03:21.561Z,84.8
2018-11-29T06:04:33.908Z,84.6
2018-11-29T06:05:46.081Z,84.9
2018-11-29T06:06:58.309Z,85.8
2018-11-29T06:08:10.527Z,85.2
2018-11-29T06:09:22.670Z,85.5
2018-11-29T06:10:34.966Z,85.5
2018-11-29T06:11:47.110Z,85.7
2018-11-29T06:12:59.324Z,85.5
2018-11-29T06:14:11.530Z,85.3
2018-11-29T06:15:23.741Z,85.8
2018-11-29T06:16:36.066Z,86.5
2018-11-29T06:17:48.185Z,86.1
2018-11-29T06:19:00.485Z,86.3
2018-11-29T06:20:13.013Z,86.5
2018-11-29T06:21:24.928Z,86.3
2018-11-29T06:22:37.134Z,86.2
2018-11-29T06:23:49.367Z,86.7
2018-11-29T06:25:01.517Z,86.5
2018-11-29T06:26:13.813Z,87
2018-11-29T06:27:27.825Z,86.9
2018-11-29T06:28:38.215Z,86.5
2018-11-29T06:29:50.349Z,87
2018-11-29T06:31:02.643Z,87.1
2018-11-29T06:32:14.787Z,86.9
2018-11-29T06:33:27.010Z,87
2018-11-29T06:34:39.219Z,87.4
2018-11-29T06:35:51.531Z,87
2018-11-29T06:37:03.641Z,87.2
2018-11-29T06:38:15.859Z,87.5
2018-11-29T06:39:28.155Z,88.1
2018-11-29T06:40:40.480Z,88.1
2018-11-29T06:41:52.587Z,88.4
2018-11-29T06:43:04.731Z,88.1
2018-11-29T06:44:16.951Z,88.7
2018-11-29T06:45:29.161Z,89.1
2018-11-29T06:46:41.389Z,89.4
2018-11-29T06:47:53.762Z,90
2018-11-29T06:49:05.923Z,90
2018-11-29T06:50:18.057Z,91
2018-11-29T06:51:30.338Z,91.2
2018-11-29T06:52:42.560Z,91.4
2018-11-29T06:53:54.705Z,91.8
2018-11-29T06:55:06.935Z,91.8
2018-11-29T06:56:19.216Z,92.6
2018-11-29T06:57:31.370Z,93.1
2018-11-29T06:58:43.656Z,93.6
2018-11-29T06:59:55.811Z,93.4
2018-11-29T07:02:20.283Z,94.2
2018-11-29T07:03:32.438Z,94.2
2018-11-29T07:04:44.703Z,94.6
2018-11-29T07:05:56.965Z,94.5
2018-11-29T07:07:09.188Z,94.2
2018-11-29T07:08:21.415Z,94.2
2018-11-29T07:09:33.881Z,94.8
2018-11-29T07:10:45.733Z,95.1
2018-11-29T07:11:58.036Z,95.2
2018-11-29T07:13:10.254Z,95.5
2018-11-29T07:14:22.481Z,95.8
2018-11-29T07:15:34.650Z,96
2018-11-29T07:16:46.912Z,96.1
2018-11-29T07:17:59.071Z,96.1
2018-11-29T07:19:11.354Z,96.5
2018-11-29T07:20:23.501Z,96.6
2018-11-29T07:21:35.703Z,96.6
2018-11-29T07:22:47.996Z,96.7
2018-11-29T07:24:00.183Z,96.7
2018-11-29T07:25:12.454Z,96.8
2018-11-29T07:26:24.677Z,96.6
2018-11-29T07:27:36.957Z,96.6
2018-11-29T07:28:49.029Z,96.3
2018-11-29T07:30:01.350Z,96.2
2018-11-29T07:31:13.486Z,96.3
2018-11-29T07:32:25.812Z,95.9
2018-11-29T07:33:37.996Z,96.1
2018-11-29T07:34:50.151Z,96.2
2018-11-29T07:36:02.468Z,96
2018-11-29T07:37:14.669Z,96.2
2018-11-29T07:38:26.823Z,96.3
2018-11-29T07:39:39.001Z,96.4
2018-11-29T07:40:51.240Z,96.5
2018-11-29T07:42:03.653Z,96.8
2018-11-29T07:43:15.653Z,96.8
2018-11-29T07:44:27.972Z,97
2018-11-29T07:45:40.114Z,97
2018-11-29T07:46:52.305Z,96.8
2018-11-29T07:48:04.611Z,96.9
2018-11-29T07:49:16.862Z,96.6
2018-11-29T07:50:29.040Z,96.6
2018-11-29T07:51:41.269Z,96.4
2018-11-29T07:54:05.683Z,96.3
2018-11-29T07:55:17.854Z,96.1
2018-11-29T07:56:30.124Z,95.9
2018-11-29T07:58:54.500Z,95.8
2018-11-29T08:00:06.778Z,95.8
2018-11-29T08:01:18.922Z,96.1
2018-11-29T08:02:31.235Z,96.1
2018-11-29T08:03:43.362Z,95.8
2018-11-29T08:04:55.631Z,96.3
2018-11-29T08:06:07.869Z,96.2
2018-11-29T08:07:20.019Z,96.3
2018-11-29T08:08:32.297Z,96
2018-11-29T08:09:44.444Z,95.9
2018-11-29T08:10:56.843Z,96.2
2018-11-29T08:12:08.988Z,96.5
2018-11-29T08:13:21.153Z,96.4
2018-11-29T08:14:33.434Z,96.4
2018-11-29T08:15:45.664Z,96.5
2018-11-29T08:16:57.788Z,96.1
2018-11-29T08:18:10.021Z,95.9
2018-11-29T08:19:22.315Z,96
2018-11-29T08:20:34.569Z,95.8
2018-11-29T08:21:46.730Z,95.9
2018-11-29T08:22:58.992Z,96
2018-11-29T08:24:11.145Z,95
2018-11-29T08:25:23.416Z,94.8
2018-11-29T08:26:35.553Z,95.2
2018-11-29T08:27:47.796Z,94.7
2018-11-29T08:29:00.077Z,94.6
2018-11-29T08:30:12.264Z,95.5
2018-11-29T08:31:24.459Z,95.5
2018-11-29T08:32:36.735Z,95.3
2018-11-29T08:33:48.932Z,94.5
2018-11-29T08:35:01.152Z,94.5
2018-11-29T08:36:13.293Z,94.3
2018-11-29T08:37:25.654Z,94.1
2018-11-29T08:38:37.804Z,94.4
2018-11-29T08:39:50.017Z,94.2
2018-11-29T08:41:02.146Z,94.5
2018-11-29T08:42:14.443Z,93
2018-11-29T08:43:26.604Z,93.6
2018-11-29T08:44:38.896Z,92.7
2018-11-29T08:45:51.365Z,92.6
2018-11-29T08:47:03.359Z,92.7
2018-11-29T08:48:15.545Z,92.6
2018-11-29T08:49:27.746Z,92.5
2018-11-29T08:50:39.976Z,93.9
2018-11-29T08:51:52.178Z,93.2
2018-11-29T08:53:04.397Z,91.6
2018-11-29T08:54:16.538Z,91.6
2018-11-29T08:55:28.816Z,91.6
2018-11-29T08:56:41.072Z,91.5
2018-11-29T08:57:53.212Z,93
2018-11-29T08:59:05.497Z,91.4
2018-11-29T09:00:17.705Z,91.2
2018-11-29T09:01:29.881Z,91.4
2018-11-29T09:02:42.210Z,90.7
2018-11-29T09:03:54.343Z,92.1
2018-11-29T09:05:06.610Z,92.5
2018-11-29T09:06:18.792Z,91.3
2018-11-29T09:07:30.942Z,90.8
2018-11-29T09:08:43.158Z,90.9
2018-11-29T09:09:55.466Z,90.5
2018-11-29T09:11:07.698Z,90.8
2018-11-29T09:12:19.825Z,89.7
2018-11-29T09:13:32.116Z,89.4
2018-11-29T09:14:44.433Z,89.5
2018-11-29T09:15:56.504Z,89.4
2018-11-29T09:17:08.801Z,89.4
2018-11-29T09:18:21.015Z,89.5
2018-11-29T09:19:33.196Z,88.6
2018-11-29T09:20:45.440Z,89.7
2018-11-29T09:21:57.649Z,90.2
2018-11-29T09:23:09.863Z,89.4
2018-11-29T09:24:22.074Z,89.3
2018-11-29T09:25:34.285Z,89.7
2018-11-29T09:26:46.482Z,87.4
2018-11-29T09:27:58.698Z,87.4
2018-11-29T09:29:10.915Z,87.7
2018-11-29T09:30:23.079Z,88.9
2018-11-29T09:31:35.291Z,89.3
2018-11-29T09:32:47.571Z,87.1
2018-11-29T09:33:59.779Z,88.8
2018-11-29T09:35:12.046Z,89.8
2018-11-29T09:36:24.126Z,86.9
2018-11-29T09:37:36.482Z,88.3
2018-11-29T09:38:48.623Z,87.2
2018-11-29T09:40:00.766Z,86.9
2018-11-29T09:41:13.075Z,87.1
2018-11-29T09:42:25.308Z,86.5
2018-11-29T09:43:37.507Z,86.5
2018-11-29T09:44:49.763Z,87
2018-11-29T09:46:01.933Z,88.5
2018-11-29T09:47:14.107Z,89.6
2018-11-29T09:48:26.333Z,85.6
2018-11-29T09:49:38.549Z,86.5
2018-11-29T09:50:50.843Z,85.2
2018-11-29T09:52:03.044Z,86.6
2018-11-29T09:53:15.232Z,84.8
2018-11-29T09:54:29.707Z,85.5
2018-11-29T09:55:39.711Z,86.2
2018-11-29T09:56:51.850Z,86.6
2018-11-29T09:58:04.049Z,84.7
2018-11-29T09:59:16.388Z,86.2
2018-11-29T10:00:28.650Z,85.4
2018-11-29T10:01:40.849Z,87.1
2018-11-29T10:02:53.198Z,87.3
2018-11-29T10:04:05.105Z,87.7
2018-11-29T10:05:17.406Z,84.6
2018-11-29T10:06:29.560Z,85.5
2018-11-29T10:07:41.907Z,86
2018-11-29T10:08:53.991Z,85.5
2018-11-29T10:10:06.212Z,86.2
2018-11-29T10:11:18.508Z,83.9
2018-11-29T10:12:30.636Z,84.3
2018-11-29T10:13:42.952Z,82.7
2018-11-29T10:14:55.069Z,82.9
2018-11-29T10:16:07.382Z,84.9
2018-11-29T10:17:19.510Z,85.9
2018-11-29T10:18:31.738Z,84.1
2018-11-29T10:19:44.041Z,83.9
2018-11-29T10:20:56.285Z,84.6
2018-11-29T10:22:08.495Z,80.4
2018-11-29T10:23:20.706Z,83.5
2018-11-29T10:24:33.060Z,83.1
2018-11-29T10:25:45.075Z,83.2
2018-11-29T10:26:57.289Z,83.8
2018-11-29T10:28:09.591Z,80.6
2018-11-29T10:29:21.747Z,82.9
2018-11-29T10:30:34.037Z,83.6
2018-11-29T10:31:46.278Z,84.1
2018-11-29T10:32:58.402Z,82.9
2018-11-29T10:34:10.749Z,82.7
2018-11-29T10:35:22.842Z,81.6
2018-11-29T10:36:35.140Z,79.9
2018-11-29T10:37:47.361Z,82.5
2018-11-29T10:38:59.508Z,83.9
2018-11-29T10:40:12.730Z,81
2018-11-29T10:41:24.011Z,83.3
2018-11-29T10:42:36.237Z,82.9
2018-11-29T10:43:48.815Z,80.6
2018-11-29T10:45:00.583Z,80.9
2018-11-29T10:46:12.868Z,83.1
2018-11-29T10:47:25.137Z,81
2018-11-29T10:48:37.363Z,81
2018-11-29T10:49:49.531Z,81.3
2018-11-29T10:51:01.743Z,81.8
2018-11-29T10:52:13.948Z,81.7
2018-11-29T10:53:26.131Z,79.7
2018-11-29T10:54:38.337Z,82
2018-11-29T10:55:50.661Z,81.4
2018-11-29T10:57:02.856Z,82.3
2018-11-29T10:58:15.013Z,80.9
2018-11-29T10:59:27.294Z,81.9
2018-11-29T11:00:39.452Z,81.4
2018-11-29T11:01:51.760Z,79.7
2018-11-29T11:03:03.934Z,80.7
2018-11-29T11:04:16.157Z,80.7
2018-11-29T11:05:28.409Z,81.6
2018-11-29T11:06:40.550Z,82.4
2018-11-29T11:07:52.712Z,81.6
2018-11-29T11:09:04.992Z,80.6
2018-11-29T11:10:17.215Z,79.4
2018-11-29T11:11:29.342Z,76.9
2018-11-29T11:12:41.563Z,80.3
2018-11-29T11:13:53.868Z,78.8
2018-11-29T11:15:06.088Z,80.7
2018-11-29T11:16:18.221Z,78.2
2018-11-29T11:17:30.455Z,80.6
2018-11-29T11:18:42.739Z,79.2
2018-11-29T11:19:54.935Z,79.3
2018-11-29T11:21:07.155Z,79.3
2018-11-29T11:22:19.399Z,79.6
2018-11-29T11:23:31.517Z,80.7
2018-11-29T11:24:43.739Z,80.7
2018-11-29T11:25:55.963Z,81.5
2018-11-29T11:27:08.299Z,81.1
2018-11-29T11:28:20.459Z,79.6
2018-11-29T11:29:32.603Z,81.2
2018-11-29T11:30:44.887Z,79.9
2018-11-29T11:31:57.084Z,78.4
2018-11-29T11:33:09.226Z,79.1
2018-11-29T11:34:21.515Z,78.5
2018-11-29T11:35:33.649Z,78.2
2018-11-29T11:36:45.946Z,76.4
2018-11-29T11:37:58.150Z,77.5
2018-11-29T11:39:10.376Z,78.8
2018-11-29T11:40:22.513Z,80
2018-11-29T11:41:35.349Z,80.7
2018-11-29T11:42:46.957Z,79.3
2018-11-29T11:43:59.167Z,80.6
2018-11-29T11:45:11.486Z,79.6
2018-11-29T11:46:23.699Z,77.4
2018-11-29T11:47:35.895Z,76.6
2018-11-29T11:48:48.198Z,78.6
2018-11-29T11:50:00.251Z,78.7
2018-11-29T11:51:12.550Z,78.1
2018-11-29T11:52:24.757Z,81.9
2018-11-29T11:53:37.005Z,78.1
2018-11-29T11:54:49.204Z,79.7
2018-11-29T11:56:01.425Z,80.2
2018-11-29T11:57:13.648Z,80.2
2018-11-29T11:58:25.898Z,82
2018-11-29T11:59:37.995Z,79.5
2018-11-29T12:00:50.267Z,80.7
2018-11-29T12:02:02.438Z,79.3
2018-11-29T12:03:14.720Z,81.4
2018-11-29T12:04:27.002Z,81.3
2018-11-29T12:05:39.162Z,80.9
2018-11-29T12:06:51.409Z,78.8
2018-11-29T12:08:03.532Z,75.9
2018-11-29T12:09:15.829Z,78.5
2018-11-29T12:10:28.055Z,79.2
2018-11-29T12:11:40.265Z,77
2018-11-29T12:12:52.488Z,77.6
2018-11-29T12:14:04.762Z,78.3
2018-11-29T12:15:16.836Z,76.7
2018-11-29T12:16:29.124Z,75.7
2018-11-29T12:17:41.324Z,78.3
2018-11-29T12:18:53.461Z,77.1
2018-11-29T12:20:05.670Z,76.3
2018-11-29T12:21:17.881Z,76.6
2018-11-29T12:22:30.182Z,77.1
2018-11-29T12:23:42.411Z,77.8
2018-11-29T12:24:54.612Z,79.7
2018-11-29T12:26:06.722Z,78.6
2018-11-29T12:27:19.915Z,79.4
2018-11-29T12:28:31.213Z,78
2018-11-29T12:29:43.373Z,80.4
2018-11-29T12:30:55.600Z,78.9
2018-11-29T12:32:07.826Z,80.1
2018-11-29T12:33:20.111Z,78.9
2018-11-29T12:34:32.278Z,79.2
2018-11-29T12:35:44.494Z,78.9
2018-11-29T12:36:56.777Z,80.7
2018-11-29T12:38:08.942Z,80.3
2018-11-29T12:39:21.156Z,79.7
2018-11-29T12:40:33.360Z,79.3
2018-11-29T12:41:45.638Z,79.6
2018-11-29T12:42:57.862Z,79.8
2018-11-29T12:44:10.010Z,80.2
2018-11-29T12:45:22.210Z,79.5
2018-11-29T12:46:34.428Z,81.1
2018-11-29T12:47:46.738Z,80.4
2018-11-29T12:48:58.880Z,80.5
2018-11-29T12:50:11.183Z,80.6
2018-11-29T12:51:23.402Z,81.2
2018-11-29T12:52:35.790Z,82.8
2018-11-29T12:53:47.770Z,83.1
2018-11-29T12:54:59.994Z,83.5
2018-11-29T12:56:12.307Z,82.7
2018-11-29T12:57:24.432Z,84.3
2018-11-29T12:58:36.664Z,84.5
2018-11-29T12:59:49.003Z,84.5
2018-11-29T13:01:01.181Z,84.9
2018-11-29T13:02:13.403Z,86.5
2018-11-29T13:03:25.621Z,87.8
2018-11-29T13:04:37.776Z,86.7
2018-11-29T13:05:50.082Z,88
2018-11-29T13:07:02.296Z,88.9
2018-11-29T13:08:14.527Z,89.1
2018-11-29T13:09:26.783Z,88.1
2018-11-29T13:10:38.940Z,88.3
2018-11-29T13:11:51.089Z,89
2018-11-29T13:13:03.307Z,90
2018-11-29T13:14:15.605Z,89.5
2018-11-29T13:15:27.742Z,90.1
2018-11-29T13:16:40.078Z,90
2018-11-29T13:17:52.204Z,89.5
2018-11-29T13:19:04.488Z,91.3
2018-11-29T13:20:16.629Z,91.4
2018-11-29T13:21:28.944Z,90.9
2018-11-29T13:22:41.066Z,90.6
2018-11-29T13:23:53.368Z,90.7
2018-11-29T13:25:05.504Z,91.4
2018-11-29T13:26:17.814Z,90.7
2018-11-29T13:27:30.004Z,90.2
2018-11-29T13:28:42.224Z,91
2018-11-29T13:29:54.437Z,90.9
2018-11-29T13:31:06.666Z,90.3
2018-11-29T13:32:18.888Z,91.5
2018-11-29T13:33:31.142Z,91.9
2018-11-29T13:34:43.353Z,91.2
2018-11-29T13:35:55.584Z,91.6
2018-11-29T13:37:07.720Z,91.6
2018-11-29T13:38:19.958Z,92
2018-11-29T13:39:32.255Z,92.6
2018-11-29T13:40:44.466Z,90.8
2018-11-29T13:41:56.689Z,91.8
2018-11-29T13:43:08.860Z,92.2
2018-11-29T13:44:21.107Z,92.4
2018-11-29T13:45:33.376Z,92.4
2018-11-29T13:46:45.501Z,92.9
2018-11-29T13:47:57.711Z,93.7
2018-11-29T13:49:09.939Z,94.3
2018-11-29T13:50:22.270Z,94.8
2018-11-29T13:51:34.436Z,95.1
2018-11-29T13:52:46.596Z,95
2018-11-29T13:53:58.808Z,95.5
2018-11-29T13:55:11.140Z,95.5
2018-11-29T13:56:23.316Z,95.8
2018-11-29T13:57:35.571Z,95.6
2018-11-29T13:58:47.777Z,94.8
2018-11-29T14:00:00.062Z,95
2018-11-29T14:01:13.678Z,95
2018-11-29T14:02:24.362Z,95.3
2018-11-29T14:03:36.740Z,95.3
2018-11-29T14:04:48.803Z,95.6
2018-11-29T14:06:01.102Z,95
2018-11-29T14:07:13.254Z,94.8
2018-11-29T14:08:25.576Z,94.8
2018-11-29T14:09:37.770Z,95
2018-11-29T14:10:49.909Z,94.5
2018-11-29T14:12:02.219Z,94.9
2018-11-29T14:13:14.352Z,94.8
2018-11-29T14:14:26.717Z,94.7
2018-11-29T14:15:38.790Z,95
2018-11-29T14:16:51.083Z,95.3
2018-11-29T14:18:03.302Z,94.9
2018-11-29T14:19:15.539Z,95
2018-11-29T14:20:27.672Z,93.4
2018-11-29T14:21:39.885Z,93.8
2018-11-29T14:22:52.098Z,93.2
2018-11-29T14:24:04.321Z,94
2018-11-29T14:25:16.539Z,94.4
2018-11-29T14:26:28.847Z,94.2
2018-11-29T14:27:41.065Z,94.7
2018-11-29T14:28:53.185Z,94
2018-11-29T14:30:05.526Z,94.4
2018-11-29T14:31:17.626Z,94.7
2018-11-29T14:32:29.868Z,94.9
2018-11-29T14:33:42.130Z,95.4
2018-11-29T14:34:54.275Z,95.7
2018-11-29T14:36:06.511Z,95.8
2018-11-29T14:37:18.801Z,95.2
2018-11-29T14:38:30.923Z,95.2
2018-11-29T14:39:43.156Z,95.5
2018-11-29T14:40:55.373Z,95.7
2018-11-29T14:42:07.600Z,95.4
2018-11-29T14:43:19.811Z,95.6
2018-11-29T14:44:32.027Z,94.8
2018-11-29T14:45:44.310Z,95.3
2018-11-29T14:46:56.540Z,94.9
2018-11-29T14:48:08.749Z,94.8
2018-11-29T14:49:20.976Z,95.1
2018-11-29T14:50:33.143Z,95.5
2018-11-29T14:51:45.404Z,95.1
2018-11-29T14:52:57.635Z,94.7
2018-11-29T14:54:09.760Z,94.1
2018-11-29T14:56:34.271Z,93.6
2018-11-29T14:57:46.394Z,93.6
2018-11-29T14:58:58.728Z,94.5
2018-11-29T15:01:23.142Z,93.7
2018-11-29T15:02:35.289Z,93.9
2018-11-29T15:03:47.570Z,93.5
2018-11-29T15:04:59.807Z,93.6
2018-11-29T15:06:11.935Z,92.9
2018-11-29T15:07:24.164Z,93.2
2018-11-29T15:08:36.441Z,92.9
2018-11-29T15:09:48.653Z,93.2
2018-11-29T15:11:00.884Z,92.3
2018-11-29T15:12:13.112Z,92.5
2018-11-29T15:13:25.327Z,92.2
2018-11-29T15:14:37.521Z,92.1
2018-11-29T15:15:49.740Z,92.5
2018-11-29T15:17:01.964Z,91.8
2018-11-29T15:18:14.202Z,91.8
2018-11-29T15:19:26.310Z,92.5
2018-11-29T15:20:38.988Z,91.8
2018-11-29T15:21:50.739Z,92
2018-11-29T15:23:03.034Z,92.1
2018-11-29T15:24:15.266Z,92.7
2018-11-29T15:25:27.455Z,92.2
2018-11-29T15:26:39.597Z,92.7
2018-11-29T15:27:51.862Z,92.9
2018-11-29T15:29:04.022Z,93.3
2018-11-29T15:30:16.222Z,94
2018-11-29T15:31:28.628Z,93.2
2018-11-29T15:32:40.766Z,93
2018-11-29T15:33:52.935Z,92.8
2018-11-29T15:35:05.172Z,90.4
2018-11-29T15:36:17.390Z,90.6
2018-11-29T15:37:29.593Z,90.8
2018-11-29T15:38:41.849Z,91
2018-11-29T15:39:53.960Z,91
2018-11-29T15:41:06.189Z,90.1
2018-11-29T15:42:18.421Z,90.1
2018-11-29T15:43:30.758Z,88.5
2018-11-29T15:44:42.846Z,89.1
2018-11-29T15:45:55.179Z,89.6
2018-11-29T15:47:07.298Z,90.4
2018-11-29T15:48:19.589Z,89.8
2018-11-29T15:49:31.781Z,87.2
2018-11-29T15:50:44.005Z,88.8
2018-11-29T15:51:56.175Z,89.8
2018-11-29T15:53:08.373Z,88.9
2018-11-29T15:54:20.687Z,89.5
2018-11-29T15:55:32.934Z,89.7
2018-11-29T15:56:45.154Z,89.6
2018-11-29T15:57:57.366Z,88.5
2018-11-29T15:59:09.516Z,87.9
2018-11-29T16:00:21.815Z,86.6
2018-11-29T16:01:33.955Z,89.2
2018-11-29T16:02:46.264Z,87.8
2018-11-29T16:03:58.430Z,86.4
2018-11-29T16:05:10.849Z,85.9
2018-11-29T16:06:22.893Z,88
2018-11-29T16:07:35.149Z,87
2018-11-29T16:08:47.364Z,86.8
2018-11-29T16:09:59.497Z,88.2
2018-11-29T16:11:11.890Z,86.5
2018-11-29T16:12:24.026Z,87.6
2018-11-29T16:13:36.143Z,86.2
2018-11-29T16:14:48.375Z,88.3
2018-11-29T16:16:00.799Z,86.1
2018-11-29T16:17:12.897Z,86.8
2018-11-29T16:18:25.031Z,87.5
2018-11-29T16:19:37.321Z,87.5
2018-11-29T16:20:49.860Z,87.6
2018-11-29T16:22:01.786Z,87.2
2018-11-29T16:23:13.985Z,87
2018-11-29T16:24:26.216Z,88.1
2018-11-29T16:25:38.455Z,88.5
2018-11-29T16:26:50.725Z,87.7
2018-11-29T16:28:02.816Z,86.5
2018-11-29T16:29:15.096Z,87.8